KPHF/PHF METAR and TAF weather

Enter ICAO airport designator
Station Type Date Time Source
KPHF METAR 2018/12/19 08:54 UTC NOAA

KPHF 190854Z AUTO 00000KT 9SM CLR M02/M04 A3022 RMK AO2 SLP235 I3000 T10221039 50004


Station Type Date Time Source
KPHF Decoded METAR 2018/12/19 08:54 UTC NOAA

WILLIAMSBURG INTERNATIONAL AIRPORT , VA, United States (KPHF) 37-08N 76-30W 12M
Dec 19, 2018 - 03:54 AM EST / 2018.12.19 0854 UTC
Wind: Calm:0
Visibility: 9 mile(s):0
Sky conditions: clear
Temperature: 28.0 F (-2.2 C)
Dew Point: 25.0 F (-3.9 C)
Relative Humidity: 88%
Pressure (altimeter): 30.22 in. Hg (1023 hPa)
Pressure tendency: 0.01 inches (0.4 hPa) higher than three hours ago
ob: KPHF 190854Z AUTO 00000KT 9SM CLR M02/M04 A3022 RMK AO2 SLP235 I3000 T10221039 50004
cycle: 9

Station Type Date Time Source
KPHF TAF 2018/12/19 06:36 UTC NOAA

TAF KPHF 190534Z 1906/2006 00000KT P6SM SKC
FM191500 19004KT P6SM SCT250
FM200500 VRB03KT P6SM BKN150


Example: see airport list